sensor_id;sensor_type;location;lat;lon;timestamp;P1;P2;P0
76045;PMS7003;64741;41.730;44.788;2023-05-29T00:02:16;1;0.4;0.4
76045;PMS7003;64741;41.730;44.788;2023-05-29T00:07:16;1.4;0.8;0.2
76045;PMS7003;64741;41.730;44.788;2023-05-29T00:12:10;0.8;0.6;0.2
76045;PMS7003;64741;41.730;44.788;2023-05-29T00:17:16;0.8;0.8;0.2
76045;PMS7003;64741;41.730;44.788;2023-05-29T00:22:08;1.8;1.6;1
76045;PMS7003;64741;41.730;44.788;2023-05-29T00:27:14;1;0.6;0.2
76045;PMS7003;64741;41.730;44.788;2023-05-29T00:32:08;0.8;0.4;0.2
76045;PMS7003;64741;41.730;44.788;2023-05-29T00:37:10;1.6;1.2;0.6
76045;PMS7003;64741;41.730;44.788;2023-05-29T00:42:06;0.8;0.6;0.2
76045;PMS7003;64741;41.730;44.788;2023-05-29T00:47:14;2.2;1.2;0.6
76045;PMS7003;64741;41.730;44.788;2023-05-29T00:52:10;0.2;0.2;0
76045;PMS7003;64741;41.730;44.788;2023-05-29T00:57:10;1.6;1.4;0.8
76045;PMS7003;64741;41.730;44.788;2023-05-29T01:02:08;0.2;0.2;0
76045;PMS7003;64741;41.730;44.788;2023-05-29T01:07:08;1.4;1;0.4
76045;PMS7003;64741;41.730;44.788;2023-05-29T01:12:16;0.8;0.2;0.2
76045;PMS7003;64741;41.730;44.788;2023-05-29T01:17:16;1.6;1.6;0.8
76045;PMS7003;64741;41.730;44.788;2023-05-29T01:22:18;1.4;1.4;0.4
76045;PMS7003;64741;41.730;44.788;2023-05-29T01:27:08;1;1;0.2
76045;PMS7003;64741;41.730;44.788;2023-05-29T01:32:14;1.8;1;0.5
76045;PMS7003;64741;41.730;44.788;2023-05-29T01:37:08;0.6;0.2;0
76045;PMS7003;64741;41.730;44.788;2023-05-29T01:42:18;1.6;0.2;0.2
76045;PMS7003;64741;41.730;44.788;2023-05-29T01:47:12;2;1.6;0.6
76045;PMS7003;64741;41.730;44.788;2023-05-29T01:52:16;1;0.2;0.2
76045;PMS7003;64741;41.730;44.788;2023-05-29T01:57:14;1.6;0.8;0.4
76045;PMS7003;64741;41.730;44.788;2023-05-29T02:02:16;0.6;0.4;0
76045;PMS7003;64741;41.730;44.788;2023-05-29T02:07:16;1;0.8;0.4
76045;PMS7003;64741;41.730;44.788;2023-05-29T02:12:10;0.8;0.6;0.4
76045;PMS7003;64741;41.730;44.788;2023-05-29T02:17:10;0.6;0.4;0.2
76045;PMS7003;64741;41.730;44.788;2023-05-29T02:21:58;0.8;0.6;0.2
76045;PMS7003;64741;41.730;44.788;2023-05-29T02:27:16;0.8;0.4;0.4
76045;PMS7003;64741;41.730;44.788;2023-05-29T02:32:18;0.6;0.4;0.2
76045;PMS7003;64741;41.730;44.788;2023-05-29T02:37:18;1.2;0.8;0.4
76045;PMS7003;64741;41.730;44.788;2023-05-29T02:42:10;0.6;0;0
76045;PMS7003;64741;41.730;44.788;2023-05-29T02:47:18;1.2;0.4;0.2
76045;PMS7003;64741;41.730;44.788;2023-05-29T02:52:02;1.2;1;0.6
76045;PMS7003;64741;41.730;44.788;2023-05-29T02:57:18;0.6;0.2;0
76045;PMS7003;64741;41.730;44.788;2023-05-29T03:02:12;1.2;0.8;0
76045;PMS7003;64741;41.730;44.788;2023-05-29T03:07:12;1;0.6;0.4
76045;PMS7003;64741;41.730;44.788;2023-05-29T03:12:18;0.8;0.6;0.4
76045;PMS7003;64741;41.730;44.788;2023-05-29T03:17:18;1;0.6;0.2
76045;PMS7003;64741;41.730;44.788;2023-05-29T03:22:12;1.2;0.8;0.4
76045;PMS7003;64741;41.730;44.788;2023-05-29T03:27:12;1.4;0.6;0.2
76045;PMS7003;64741;41.730;44.788;2023-05-29T03:32:10;2.2;1.6;0.6
76045;PMS7003;64741;41.730;44.788;2023-05-29T03:36:58;1.2;0.8;0.2
76045;PMS7003;64741;41.730;44.788;2023-05-29T03:42:17;2.4;1.4;0.8
76045;PMS7003;64741;41.730;44.788;2023-05-29T03:47:18;1.4;1.2;0.6
76045;PMS7003;64741;41.730;44.788;2023-05-29T03:52:18;1.2;0.6;0.6
76045;PMS7003;64741;41.730;44.788;2023-05-29T03:57:12;2.2;1.2;0.8
76045;PMS7003;64741;41.730;44.788;2023-05-29T04:01:48;2;1.4;0.6
76045;PMS7003;64741;41.730;44.788;2023-05-29T04:07:10;1;1;0.6
76045;PMS7003;64741;41.730;44.788;2023-05-29T04:12:18;2.4;2.2;1.2
76045;PMS7003;64741;41.730;44.788;2023-05-29T04:17:16;1.8;1.6;0.8
76045;PMS7003;64741;41.730;44.788;2023-05-29T04:22:16;2.4;1.6;0.8
76045;PMS7003;64741;41.730;44.788;2023-05-29T04:27:10;1.6;1.4;1
76045;PMS7003;64741;41.730;44.788;2023-05-29T04:32:12;1.4;1;0.8
76045;PMS7003;64741;41.730;44.788;2023-05-29T04:37:12;1.6;1.2;0.6
76045;PMS7003;64741;41.730;44.788;2023-05-29T04:42:10;1.2;1;0.8
76045;PMS7003;64741;41.730;44.788;2023-05-29T04:47:04;1.6;1.4;0.8
76045;PMS7003;64741;41.730;44.788;2023-05-29T04:52:16;3;1.8;1.4
76045;PMS7003;64741;41.730;44.788;2023-05-29T04:57:12;1.4;0.8;0.4
76045;PMS7003;64741;41.730;44.788;2023-05-29T05:02:10;2.2;1.2;1
76045;PMS7003;64741;41.730;44.788;2023-05-29T05:07:16;2.6;1.2;1
76045;PMS7003;64741;41.730;44.788;2023-05-29T05:12:00;2.8;1.4;0.8
76045;PMS7003;64741;41.730;44.788;2023-05-29T05:17:18;2.4;2.2;1
76045;PMS7003;64741;41.730;44.788;2023-05-29T05:22:00;2.4;1.6;1.2
76045;PMS7003;64741;41.730;44.788;2023-05-29T05:27:16;1.4;1.4;1.2
76045;PMS7003;64741;41.730;44.788;2023-05-29T05:32:02;2.8;1.6;1.2
76045;PMS7003;64741;41.730;44.788;2023-05-29T05:37:18;2.4;1.8;1
76045;PMS7003;64741;41.730;44.788;2023-05-29T05:42:12;1.8;1.6;1.2
76045;PMS7003;64741;41.730;44.788;2023-05-29T05:47:10;1.4;1.2;0.6
76045;PMS7003;64741;41.730;44.788;2023-05-29T05:52:10;2.6;1.6;1
76045;PMS7003;64741;41.730;44.788;2023-05-29T05:57:18;2.2;2;1.2
76045;PMS7003;64741;41.730;44.788;2023-05-29T06:02:18;2.2;1.4;1
76045;PMS7003;64741;41.730;44.788;2023-05-29T06:07:18;2;1.8;1
76045;PMS7003;64741;41.730;44.788;2023-05-29T06:12:18;1.4;1.2;0.8
76045;PMS7003;64741;41.730;44.788;2023-05-29T06:17:12;1.4;1.2;0.6
76045;PMS7003;64741;41.730;44.788;2023-05-29T06:22:18;1.4;1;0.8
76045;PMS7003;64741;41.730;44.788;2023-05-29T06:27:12;2.6;2.2;1.8
76045;PMS7003;64741;41.730;44.788;2023-05-29T06:32:00;2.2;2.2;2
76045;PMS7003;64741;41.730;44.788;2023-05-29T06:37:12;1.8;1.8;1.4
76045;PMS7003;64741;41.730;44.788;2023-05-29T06:42:18;1.8;1.8;1.3
76045;PMS7003;64741;41.730;44.788;2023-05-29T06:47:14;2.2;2;1
76045;PMS7003;64741;41.730;44.788;2023-05-29T06:52:18;1.6;1;0.4
76045;PMS7003;64741;41.730;44.788;2023-05-29T06:57:12;2.4;1.8;1.4
76045;PMS7003;64741;41.730;44.788;2023-05-29T07:02:10;1.4;1.2;0.6
76045;PMS7003;64741;41.730;44.788;2023-05-29T07:07:10;2.4;2.2;1.2
76045;PMS7003;64741;41.730;44.788;2023-05-29T07:12:10;2.4;2.2;1.6
76045;PMS7003;64741;41.730;44.788;2023-05-29T07:17:18;3.2;1.4;0.8
76045;PMS7003;64741;41.730;44.788;2023-05-29T07:22:18;2.8;2;1.4
76045;PMS7003;64741;41.730;44.788;2023-05-29T07:27:10;2.2;1.8;1.4
76045;PMS7003;64741;41.730;44.788;2023-05-29T07:32:10;1.6;1.4;0.8
76045;PMS7003;64741;41.730;44.788;2023-05-29T07:36:57;2.6;2;1.4
76045;PMS7003;64741;41.730;44.788;2023-05-29T07:42:12;2.4;1.6;0.8
76045;PMS7003;64741;41.730;44.788;2023-05-29T07:47:18;3.2;2.2;1.2
76045;PMS7003;64741;41.730;44.788;2023-05-29T07:52:10;3.2;2.8;1.8
76045;PMS7003;64741;41.730;44.788;2023-05-29T07:57:16;3;2.4;1.4
76045;PMS7003;64741;41.730;44.788;2023-05-29T08:02:04;3;2.6;1.8
76045;PMS7003;64741;41.730;44.788;2023-05-29T08:07:16;4.6;3.4;2.4
76045;PMS7003;64741;41.730;44.788;2023-05-29T08:12:10;7.6;5.8;4.2
76045;PMS7003;64741;41.730;44.788;2023-05-29T08:17:10;6.6;5.4;3.6
76045;PMS7003;64741;41.730;44.788;2023-05-29T08:22:11;6.6;5.6;4.4
76045;PMS7003;64741;41.730;44.788;2023-05-29T08:27:18;5.4;4;3
76045;PMS7003;64741;41.730;44.788;2023-05-29T08:32:18;6.4;5.4;4
76045;PMS7003;64741;41.730;44.788;2023-05-29T08:37:16;12.2;10;7.2
76045;PMS7003;64741;41.730;44.788;2023-05-29T08:42:18;12.4;10;7.2
76045;PMS7003;64741;41.730;44.788;2023-05-29T08:47:10;10.4;9;5.6
76045;PMS7003;64741;41.730;44.788;2023-05-29T08:52:16;6.6;6.4;4
76045;PMS7003;64741;41.730;44.788;2023-05-29T08:57:10;4.7;4;3.7
76045;PMS7003;64741;41.730;44.788;2023-05-29T09:02:18;8.4;6.6;5
76045;PMS7003;64741;41.730;44.788;2023-05-29T09:07:10;7;5.3;4
76045;PMS7003;64741;41.730;44.788;2023-05-29T09:12:18;6.6;5.8;4.4
76045;PMS7003;64741;41.730;44.788;2023-05-29T09:17:16;5.2;4.4;3.2
76045;PMS7003;64741;41.730;44.788;2023-05-29T09:22:16;4.8;4;2.8
76045;PMS7003;64741;41.730;44.788;2023-05-29T09:27:02;6.3;5.8;3.8
76045;PMS7003;64741;41.730;44.788;2023-05-29T09:32:10;5.4;3.8;3
76045;PMS7003;64741;41.730;44.788;2023-05-29T09:37:10;4.6;2.8;2.2
76045;PMS7003;64741;41.730;44.788;2023-05-29T09:42:10;4.4;3.8;2.4
76045;PMS7003;64741;41.730;44.788;2023-05-29T09:47:18;4.8;3.4;2.6
76045;PMS7003;64741;41.730;44.788;2023-05-29T09:52:20;5.6;4.8;3.2
76045;PMS7003;64741;41.730;44.788;2023-05-29T09:57:10;6.4;5.4;4
76045;PMS7003;64741;41.730;44.788;2023-05-29T10:02:08;5.6;4.6;3
76045;PMS7003;64741;41.730;44.788;2023-05-29T10:07:03;7.6;6.2;4.2
76045;PMS7003;64741;41.730;44.788;2023-05-29T10:12:11;8.8;7.6;5.8
76045;PMS7003;64741;41.730;44.788;2023-05-29T10:17:16;9.2;7.2;5.4
76045;PMS7003;64741;41.730;44.788;2023-05-29T10:22:12;10.8;9.6;6.4
76045;PMS7003;64741;41.730;44.788;2023-05-29T10:27:16;7.8;6.8;4.8
76045;PMS7003;64741;41.730;44.788;2023-05-29T10:32:05;11.4;9;6.6
76045;PMS7003;64741;41.730;44.788;2023-05-29T10:37:21;14;11.4;9.2
76045;PMS7003;64741;41.730;44.788;2023-05-29T10:42:28;28;24;17.2
76045;PMS7003;64741;41.730;44.788;2023-05-29T10:47:12;41.2;33.6;23.4
76045;PMS7003;64741;41.730;44.788;2023-05-29T10:52:10;48.6;38.4;25.4
76045;PMS7003;64741;41.730;44.788;2023-05-29T10:57:18;47.6;38.2;26.2
76045;PMS7003;64741;41.730;44.788;2023-05-29T11:02:04;46;36.6;25.4
76045;PMS7003;64741;41.730;44.788;2023-05-29T11:07:31;40.2;33.4;22.8
76045;PMS7003;64741;41.730;44.788;2023-05-29T11:12:17;39;31.6;21.8
76045;PMS7003;64741;41.730;44.788;2023-05-29T11:17:20;33.4;28.4;20
76045;PMS7003;64741;41.730;44.788;2023-05-29T11:22:18;33.8;28.4;21
76045;PMS7003;64741;41.730;44.788;2023-05-29T11:27:10;73.8;62.6;42
76045;PMS7003;64741;41.730;44.788;2023-05-29T11:32:18;80.8;69;46
76045;PMS7003;64741;41.730;44.788;2023-05-29T11:37:11;73.8;60.4;41.6
76045;PMS7003;64741;41.730;44.788;2023-05-29T11:42:18;64.2;49.2;32.4
76045;PMS7003;64741;41.730;44.788;2023-05-29T11:47:16;60;46.2;30.8
76045;PMS7003;64741;41.730;44.788;2023-05-29T11:52:18;56.2;43.6;29.2
76045;PMS7003;64741;41.730;44.788;2023-05-29T11:57:11;55.8;43.2;29.2
76045;PMS7003;64741;41.730;44.788;2023-05-29T12:02:10;45.3;36.5;24.8
76045;PMS7003;64741;41.730;44.788;2023-05-29T12:07:17;44.2;34.6;23.8
76045;PMS7003;64741;41.730;44.788;2023-05-29T12:12:12;33.6;27.4;19.2
76045;PMS7003;64741;41.730;44.788;2023-05-29T12:17:18;29.4;25.6;17.8
76045;PMS7003;64741;41.730;44.788;2023-05-29T12:22:16;26.2;22.4;16.2
76045;PMS7003;64741;41.730;44.788;2023-05-29T12:27:14;36.2;30.4;20.4
76045;PMS7003;64741;41.730;44.788;2023-05-29T12:32:09;27.2;23.8;16.6
76045;PMS7003;64741;41.730;44.788;2023-05-29T12:37:20;27.8;24.6;17.8
76045;PMS7003;64741;41.730;44.788;2023-05-29T12:42:12;24.8;21.6;16.6
76045;PMS7003;64741;41.730;44.788;2023-05-29T12:47:23;23.8;20.6;14.8
76045;PMS7003;64741;41.730;44.788;2023-05-29T12:52:12;22.8;18.6;14.4
76045;PMS7003;64741;41.730;44.788;2023-05-29T12:57:18;22.6;19.2;14
76045;PMS7003;64741;41.730;44.788;2023-05-29T13:02:16;20;17.4;12.8
76045;PMS7003;64741;41.730;44.788;2023-05-29T13:07:18;17;14.8;11.6
76045;PMS7003;64741;41.730;44.788;2023-05-29T13:12:16;21;16.6;12.6
76045;PMS7003;64741;41.730;44.788;2023-05-29T13:17:12;15;13.8;10.2
76045;PMS7003;64741;41.730;44.788;2023-05-29T13:22:12;16;14.2;10.8
76045;PMS7003;64741;41.730;44.788;2023-05-29T13:27:12;16.4;14;10
76045;PMS7003;64741;41.730;44.788;2023-05-29T13:32:16;14.8;12.6;8.8
76045;PMS7003;64741;41.730;44.788;2023-05-29T13:37:18;13.4;11.2;8.2
76045;PMS7003;64741;41.730;44.788;2023-05-29T13:42:18;11.6;10.4;7.8
76045;PMS7003;64741;41.730;44.788;2023-05-29T13:47:08;12.4;10.2;7.8
76045;PMS7003;64741;41.730;44.788;2023-05-29T13:52:16;14.4;12.2;9.4
76045;PMS7003;64741;41.730;44.788;2023-05-29T13:57:10;16.8;15.4;11.4
76045;PMS7003;64741;41.730;44.788;2023-05-29T14:02:18;18.6;15.6;12
76045;PMS7003;64741;41.730;44.788;2023-05-29T14:07:10;18.2;15.8;12.4
76045;PMS7003;64741;41.730;44.788;2023-05-29T14:12:02;18.2;15.6;11.4
76045;PMS7003;64741;41.730;44.788;2023-05-29T14:17:16;14.4;12.6;9.6
76045;PMS7003;64741;41.730;44.788;2023-05-29T14:22:14;12.2;11.4;8.4
76045;PMS7003;64741;41.730;44.788;2023-05-29T14:26:54;13;12;9.2
76045;PMS7003;64741;41.730;44.788;2023-05-29T14:32:10;18.6;16;12.6
76045;PMS7003;64741;41.730;44.788;2023-05-29T14:37:02;28;24.2;17.6
76045;PMS7003;64741;41.730;44.788;2023-05-29T14:42:10;56.8;44.2;30.4
76045;PMS7003;64741;41.730;44.788;2023-05-29T14:47:08;68.8;53.4;36
76045;PMS7003;64741;41.730;44.788;2023-05-29T14:52:16;69.8;55.2;38.4
76045;PMS7003;64741;41.730;44.788;2023-05-29T14:57:18;70.2;54.2;36.2
76045;PMS7003;64741;41.730;44.788;2023-05-29T15:02:12;67.8;52.6;35.8
76045;PMS7003;64741;41.730;44.788;2023-05-29T15:07:18;62.4;48.4;32.8
76045;PMS7003;64741;41.730;44.788;2023-05-29T15:12:12;60.8;46.4;31.8
76045;PMS7003;64741;41.730;44.788;2023-05-29T15:17:18;56.8;44;29.4
76045;PMS7003;64741;41.730;44.788;2023-05-29T15:22:12;54.8;42.8;29
76045;PMS7003;64741;41.730;44.788;2023-05-29T15:27:16;48;38.2;26.8
76045;PMS7003;64741;41.730;44.788;2023-05-29T15:32:16;53.6;41.6;27.8
76045;PMS7003;64741;41.730;44.788;2023-05-29T15:37:16;51.6;40.4;27.6
76045;PMS7003;64741;41.730;44.788;2023-05-29T15:42:14;44.8;36;25
76045;PMS7003;64741;41.730;44.788;2023-05-29T15:47:10;46.2;36.6;25
76045;PMS7003;64741;41.730;44.788;2023-05-29T15:52:10;47.4;38.2;25.8
76045;PMS7003;64741;41.730;44.788;2023-05-29T15:57:10;47.8;37.6;25.4
76045;PMS7003;64741;41.730;44.788;2023-05-29T16:02:16;37.8;31.4;21.6
76045;PMS7003;64741;41.730;44.788;2023-05-29T16:07:18;43;33.8;23.6
76045;PMS7003;64741;41.730;44.788;2023-05-29T16:12:16;40.2;33;22.6
76045;PMS7003;64741;41.730;44.788;2023-05-29T16:17:10;38.2;31.4;21.6
76045;PMS7003;64741;41.730;44.788;2023-05-29T16:22:16;35.8;29.4;20.4
76045;PMS7003;64741;41.730;44.788;2023-05-29T16:27:10;38.2;31.4;20.6
76045;PMS7003;64741;41.730;44.788;2023-05-29T16:32:18;36.2;30.4;20.6
76045;PMS7003;64741;41.730;44.788;2023-05-29T16:37:10;32.6;29;20
76045;PMS7003;64741;41.730;44.788;2023-05-29T16:42:10;33;28.2;19.8
76045;PMS7003;64741;41.730;44.788;2023-05-29T16:47:16;33.2;28.6;20.4
76045;PMS7003;64741;41.730;44.788;2023-05-29T16:52:00;31.6;28.2;20
76045;PMS7003;64741;41.730;44.788;2023-05-29T16:57:10;31.8;26.8;19.2
76045;PMS7003;64741;41.730;44.788;2023-05-29T17:02:10;32;28.2;20
76045;PMS7003;64741;41.730;44.788;2023-05-29T17:06:28;30.2;27.6;19.2
76045;PMS7003;64741;41.730;44.788;2023-05-29T17:12:10;29.8;25;18.2
76045;PMS7003;64741;41.730;44.788;2023-05-29T17:17:14;27;23.8;17.8
76045;PMS7003;64741;41.730;44.788;2023-05-29T17:22:16;26.2;23.4;17.6
76045;PMS7003;64741;41.730;44.788;2023-05-29T17:27:16;28;24.4;17.6
76045;PMS7003;64741;41.730;44.788;2023-05-29T17:32:12;24.6;21.6;16
76045;PMS7003;64741;41.730;44.788;2023-05-29T17:37:16;23.4;19.8;14
76045;PMS7003;64741;41.730;44.788;2023-05-29T17:42:12;23.4;20.4;14.4
76045;PMS7003;64741;41.730;44.788;2023-05-29T17:47:16;21.2;18;13.2
76045;PMS7003;64741;41.730;44.788;2023-05-29T17:52:18;21;19;14
76045;PMS7003;64741;41.730;44.788;2023-05-29T17:57:16;21.2;18.2;13.6
76045;PMS7003;64741;41.730;44.788;2023-05-29T18:02:12;20.4;17.8;13
76045;PMS7003;64741;41.730;44.788;2023-05-29T18:07:12;21;18.4;13.4
76045;PMS7003;64741;41.730;44.788;2023-05-29T18:12:12;19.2;15.8;12.2
76045;PMS7003;64741;41.730;44.788;2023-05-29T18:17:12;17.4;14.8;11.4
76045;PMS7003;64741;41.730;44.788;2023-05-29T18:22:18;17.4;14.8;10.8
76045;PMS7003;64741;41.730;44.788;2023-05-29T18:27:18;20.2;15.6;11.2
76045;PMS7003;64741;41.730;44.788;2023-05-29T18:32:10;15.4;13.6;10.6
76045;PMS7003;64741;41.730;44.788;2023-05-29T18:37:10;15.2;12.4;9.6
76045;PMS7003;64741;41.730;44.788;2023-05-29T18:42:14;16.4;12.8;9.2
76045;PMS7003;64741;41.730;44.788;2023-05-29T18:46:58;14.8;13.6;10.4
76045;PMS7003;64741;41.730;44.788;2023-05-29T18:52:16;13;12;8.8
76045;PMS7003;64741;41.730;44.788;2023-05-29T18:57:08;11.8;10.4;8.8
76045;PMS7003;64741;41.730;44.788;2023-05-29T19:02:14;10.4;9;7.4
76045;PMS7003;64741;41.730;44.788;2023-05-29T19:07:16;11.2;9.8;7.6
76045;PMS7003;64741;41.730;44.788;2023-05-29T19:12:16;9.8;9;7.2
76045;PMS7003;64741;41.730;44.788;2023-05-29T19:17:00;11;9.8;6.6
76045;PMS7003;64741;41.730;44.788;2023-05-29T19:22:10;8.8;7.8;6.6
76045;PMS7003;64741;41.730;44.788;2023-05-29T19:27:10;10.2;7.8;5.8
76045;PMS7003;64741;41.730;44.788;2023-05-29T19:31:54;10.2;8.6;6.2
76045;PMS7003;64741;41.730;44.788;2023-05-29T19:36:52;7.2;6.6;5
76045;PMS7003;64741;41.730;44.788;2023-05-29T19:42:18;8.8;7.4;5.6
76045;PMS7003;64741;41.730;44.788;2023-05-29T19:47:16;6.8;5.6;4
76045;PMS7003;64741;41.730;44.788;2023-05-29T19:51:58;7;5.4;4.4
76045;PMS7003;64741;41.730;44.788;2023-05-29T19:57:00;7.2;6.2;4.6
76045;PMS7003;64741;41.730;44.788;2023-05-29T20:02:12;6.2;5;3.8
76045;PMS7003;64741;41.730;44.788;2023-05-29T20:07:16;6.2;5;3.6
76045;PMS7003;64741;41.730;44.788;2023-05-29T20:12:12;5.6;4.8;3.2
76045;PMS7003;64741;41.730;44.788;2023-05-29T20:17:18;6.2;5.6;4.6
76045;PMS7003;64741;41.730;44.788;2023-05-29T20:22:16;5.4;5;3.8
76045;PMS7003;64741;41.730;44.788;2023-05-29T20:27:18;5;4.2;3.2
76045;PMS7003;64741;41.730;44.788;2023-05-29T20:32:12;4.8;4;3
76045;PMS7003;64741;41.730;44.788;2023-05-29T20:37:12;5.4;4.4;3.4
76045;PMS7003;64741;41.730;44.788;2023-05-29T20:42:01;6.4;5.2;3.4
76045;PMS7003;64741;41.730;44.788;2023-05-29T20:47:12;5;3.6;2.6
76045;PMS7003;64741;41.730;44.788;2023-05-29T20:52:18;4.3;3.5;2.5
76045;PMS7003;64741;41.730;44.788;2023-05-29T20:57:18;4.8;4.2;2.8
76045;PMS7003;64741;41.730;44.788;2023-05-29T21:02:10;4.6;4;3.2
76045;PMS7003;64741;41.730;44.788;2023-05-29T21:07:06;5.4;4.4;3.4
76045;PMS7003;64741;41.730;44.788;2023-05-29T21:12:14;5.8;5;3.2
76045;PMS7003;64741;41.730;44.788;2023-05-29T21:17:08;5.2;4;3.4
76045;PMS7003;64741;41.730;44.788;2023-05-29T21:22:16;4;3.4;2.8
76045;PMS7003;64741;41.730;44.788;2023-05-29T21:27:08;3.6;3.4;2.6
76045;PMS7003;64741;41.730;44.788;2023-05-29T21:32:12;4.6;3.8;2.8
76045;PMS7003;64741;41.730;44.788;2023-05-29T21:37:14;5.2;3.6;2.6
76045;PMS7003;64741;41.730;44.788;2023-05-29T21:42:18;5.4;4.4;3.4
76045;PMS7003;64741;41.730;44.788;2023-05-29T21:47:10;4.2;3;2.6
76045;PMS7003;64741;41.730;44.788;2023-05-29T21:52:10;3.8;3.2;2
76045;PMS7003;64741;41.730;44.788;2023-05-29T21:57:13;4.6;2.6;1.8
76045;PMS7003;64741;41.730;44.788;2023-05-29T22:02:18;4;2.8;2
76045;PMS7003;64741;41.730;44.788;2023-05-29T22:07:16;3.4;3;1.6
76045;PMS7003;64741;41.730;44.788;2023-05-29T22:12:16;3.6;3.2;2.4
76045;PMS7003;64741;41.730;44.788;2023-05-29T22:17:14;3.8;3;2.2
76045;PMS7003;64741;41.730;44.788;2023-05-29T22:22:08;3.8;3.4;1.6
76045;PMS7003;64741;41.730;44.788;2023-05-29T22:27:14;3.8;2.2;1.2
76045;PMS7003;64741;41.730;44.788;2023-05-29T22:32:09;2.8;2.6;1.4
76045;PMS7003;64741;41.730;44.788;2023-05-29T22:37:16;2.8;2.2;1.8
76045;PMS7003;64741;41.730;44.788;2023-05-29T22:41:58;3.8;3;1.8
76045;PMS7003;64741;41.730;44.788;2023-05-29T22:47:10;2.4;2.4;1.6
76045;PMS7003;64741;41.730;44.788;2023-05-29T22:52:14;2.8;1.8;1.4
76045;PMS7003;64741;41.730;44.788;2023-05-29T22:57:14;3;2.6;1.4
76045;PMS7003;64741;41.730;44.788;2023-05-29T23:02:08;2.4;2.4;1.4
76045;PMS7003;64741;41.730;44.788;2023-05-29T23:07:06;3;2.4;1
76045;PMS7003;64741;41.730;44.788;2023-05-29T23:12:08;2.6;2.6;1.6
76045;PMS7003;64741;41.730;44.788;2023-05-29T23:17:08;3;2.4;1.4
76045;PMS7003;64741;41.730;44.788;2023-05-29T23:22:08;2.8;2.2;1.6
76045;PMS7003;64741;41.730;44.788;2023-05-29T23:27:14;3;2.8;2.2
76045;PMS7003;64741;41.730;44.788;2023-05-29T23:32:08;3.4;3;2
76045;PMS7003;64741;41.730;44.788;2023-05-29T23:37:04;3.6;3;2
76045;PMS7003;64741;41.730;44.788;2023-05-29T23:42:08;2.8;2.2;1.4
76045;PMS7003;64741;41.730;44.788;2023-05-29T23:47:06;3.6;2.4;2
76045;PMS7003;64741;41.730;44.788;2023-05-29T23:52:12;2.8;2.2;1.4
76045;PMS7003;64741;41.730;44.788;2023-05-29T23:57:04;2.4;1.8;1.6
